ADDS METAR Data INFO
IDs: Format: Raw Decoded Include TAF

Data at: 0713 UTC 24 Jun 2018

KGCK 240654Z AUTO 11010KT 10SM CLR 18/13 A2976 RMK AO2 PK WND 11026/0601 SLP046 T01780133
KGCK 240554Z AUTO 10020G30KT 10SM CLR 17/14 A2980 RMK AO2 PK WND 06036/0459 RAE13 SLP062 P0000 60079 T01720139 10278 20156 403000122 58046
KGCK 240454Z AUTO 07024G43KT 10SM -RA FEW055 SCT075 OVC110 17/14 A2983 RMK AO2 PK WND 06044/0426 WSHFT 0354 LTG DSNT ALQDS RAE34B42 TSE03 SLP074 P0003 T01720139
KGCK 240438Z AUTO 06029G39KT 10SM FEW075 FEW085 OVC110 17/14 A2982 RMK AO2 PK WND 06044/0426 WSHFT 0354 LTG DSNT ALQDS RAE34 TSE03 PRESFR P0003 T01720139
KGCK 240408Z AUTO 05023G30KT 6SM VCTS RA BR SCT075 BKN090 OVC100 16/14 A2991 RMK AO2 PK WND 05030/0406 WSHFT 0354 LTG DSNT ALQDS TSE03 PRESFR P0003 T01610144
KGCK 240354Z AUTO 02011KT 10SM -TSRA SCT065 OVC085 16/14 A2999 RMK AO2 PK WND 33039/0258 LTG DSNT ALQDS RAB0256 TSB0258E46B48 SLP132 P0076 T01610144
KGCK 240319Z AUTO 34011G24KT 3SM +TSRA BR BKN037 16/15 A2997 RMK AO2 PK WND 33039/0258 LTG DSNT ALQDS RAB0256 TSB0258 P0061 T01610150
KGCK 240315Z AUTO 01013G28KT 1 3/4SM +TSRA BR FEW005 OVC031 16/16 A2996 RMK AO2 PK WND 33039/0258 LTG DSNT ALQDS RAB0256 TSB0258 P0060 T01610156
KGCK 240302Z AUTO 35021G39KT 3/4SM +TSRA BR SCT008 BKN029 OVC043 16/15 A2994 RMK AO2 PK WND 33039/0258 LTG DSNT ALQDS RAB0256 TSB0258 P0032 T01610150
KGCK 240259Z AUTO 33028G39KT 1 1/4SM +TSRA BR FEW006 BKN030 OVC043 17/16 A2996 RMK AO2 PK WND 33039/0258 LTG DSNT ALQDS RAB56 TSB58 PRESRR P0019 T01720156
KGCK 240257Z AUTO 33023G40KT 2 1/2SM VCTS -RA FEW006 SCT030 OVC043 18/16 A2996 RMK AO2 PK WND 33034/0257 LTG DSNT W-NE RAB56 PRESRR P0009 T01830156
KGCK 240243Z AUTO 35023G31KT 10SM VCTS BKN043 23/18 A2989 RMK AO2 PK WND 34031/0242 LTG DSNT W-N PRESRR T02280178
KGCK 240154Z 14006KT 10SM CLR 24/17 A2981 RMK AO2 LTG DSNT N AND NW SLP066 T02440172
KGCK 240054Z 14014KT 10SM CLR 26/16 A2978 RMK AO2 PK WND 15026/0018 SLP054 T02610161
KGCK 232354Z 17013G20KT 10SM CLR 28/16 A2979 RMK AO2 SLP060 T02780156 10300 20250 58017
KGCK 232254Z 18016G23KT 10SM CLR 29/16 A2981 RMK AO2 PK WND 18026/2217 SLP063 T02890161
KGCK 232154Z 17015G22KT 10SM CLR 30/16 A2983 RMK AO2 SLP071 T03000156
KGCK 232054Z 19009KT 10SM CLR 28/17 A2985 RMK AO2 SLP076 T02830167 58016
KGCK 231954Z 19008KT 10SM CLR 27/16 A2987 RMK AO2 SLP085 T02720161
KGCK 231854Z VRB03KT 10SM CLR 27/16 A2988 RMK AO2 SLP090 T02670156
KGCK 231754Z VRB03KT 10SM CLR 25/17 A2990 RMK AO2 SLP095 T02500167 10250 20128 58010
KGCK 231654Z VRB03KT 10SM CLR 23/16 A2992 RMK AO2 SLP104 T02280156
KGCK 231554Z 31003KT 10SM CLR 20/16 A2992 RMK AO2 SLP110 T02000156
KGCK 231454Z 24005KT 10SM FEW008 FEW120 18/16 A2993 RMK AO2 SLP113 T01830156 50010
KGCK 231410Z 23006KT 10SM SCT006 17/15 A2993 RMK AO2 T01670150
KGCK 231354Z 26003KT 10SM BKN006 16/15 A2993 RMK AO2 SLP115 T01610150
KGCK 231322Z 26005KT 9SM BKN005 16/15 A2992 RMK AO2 CIG 003V007 T01560150
KGCK 231308Z 25004KT 8SM FEW003 16/14 A2992 RMK AO2 T01560144
KGCK 231254Z 28006KT 8SM CLR 15/14 A2991 RMK AO2 SLP110 T01500144
KGCK 231154Z AUTO 30005KT 3SM BR CLR 13/13 A2990 RMK AO2 SLP108 70059 T01280128 10167 20122 53005
KGCK 231148Z AUTO 27003KT 3SM BR CLR 13/13 A2990 RMK AO2
KGCK 231134Z AUTO 24004KT 1 3/4SM BR CLR 13/13 A2990 RMK AO2 T01280128
KGCK 231103Z AUTO 15004KT 6SM BR FEW001 13/13 A2989 RMK AO2 T01330128
KGCK 231054Z AUTO 14005KT 10SM CLR 14/13 A2988 RMK AO2 SLP091 T01390133
KGCK 230954Z AUTO 04005KT 10SM CLR 14/14 A2987 RMK AO2 SLP083 T01440139
KGCK 230854Z AUTO 05007KT 10SM CLR 15/14 A2988 RMK AO2 SLP088 T01500144 53009
KGCK 230754Z AUTO 01009KT 10SM CLR 15/14 A2987 RMK AO2 SLP084 T01500139
KGCK 230654Z AUTO 35005KT 10SM CLR 15/14 A2985 RMK AO2 SLP081 T01500144
KGCK 230554Z AUTO 00000KT 10SM CLR 17/14 A2985 RMK AO2 SLP081 60007 T01670144 10178 20161 403000150 51007
KGCK 230454Z AUTO 18006KT 10SM CLR 17/14 A2985 RMK AO2 SLP079 T01670144
KGCK 230354Z AUTO 15005KT 10SM CLR 17/15 A2984 RMK AO2 SLP079 T01670150
KGCK 230254Z AUTO 09006KT 10SM CLR 17/14 A2983 RMK AO2 SLP075 60007 T01670144 50008
KGCK 230154Z 10010KT 10SM CLR 17/15 A2984 RMK AO2 SLP080 T01670150
KGCK 230054Z 08011KT 10SM CLR 17/15 A2983 RMK AO2 PK WND 07029/0020 WSHFT 0002 LTG DSNT E AND SE RAE20 TSE06 SLP081 P0007 T01670150
KGCK 230030Z 08014G27KT 10SM FEW070 FEW095 SCT120 17/15 A2983 RMK AO2 PK WND 07029/0020 WSHFT 0002 LTG DSNT E-S RAE20 TSE06 PRESRR P0007 T01670150
KGCK 230022Z 07019G29KT 10SM VCTS FEW050 SCT070 BKN100 17/15 A2976 RMK AO2 PK WND 07029/0020 WSHFT 0002 LTG DSNT E-S RAE20 TSE06 PRESFR TS VC NE-SE MOV E P0007 T01670150
KGCK 230007Z 36011G19KT 7SM VCTS -RA SCT045 BKN070 OVC090 17/15 A2982 RMK AO2 LTG DSNT E-SW TSE06 TS VC NE-S MOV E P0007 T01670150
KGCK 230003Z 09013G20KT 050V130 7SM TSRA BKN043 BKN075 OVC090 17/15 A2984 RMK AO2 LTG DSNT ALQDS PRESRR P0006 T01720150
KGCK 222354Z 26009G31KT 220V330 2 1/2SM +TSRA BKN036 OVC090 17/14 A2980 RMK AO2 PK WND 36050/2321 WSHFT 2309 LTG DSNT ALQDS RAB22 TSB23 SLP071 TS OHD MOV E P0052 60052 T01720144 10300 20156 56010
KGCK 222346Z 03020G33KT 4SM TSRA BR BKN033 BKN044 OVC090 16/15 A2981 RMK AO2 PK WND 36050/2321 WSHFT 2309 LTG DSNT ALQDS RAB22 TSB23 TS OHD MOV E P0040 T01610150
KGCK 222339Z 03026G41KT 1 1/4SM +TSRA BR BKN033 OVC044 16/15 A2979 RMK AO2 PK WND 36050/2321 WSHFT 2309 LTG DSNT ALQDS RAB22 TSB23 TS OHD MOV E P0037 T01560150
KGCK 222335Z 02025G46KT 1SM +TSRA BR BKN026 OVC044 16/15 A2982 RMK AO2 PK WND 36050/2321 WSHFT 2309 LTG DSNT ALQDS RAB22 TSB23 TS OHD MOV E P0033 T01560150
KGCK 222327Z 36034G50KT 1 1/2SM +TSRA BR FEW024 BKN047 OVC070 16/14 A2985 RMK AO2 PK WND 36050/2321 WSHFT 2309 VIS 1/2V5 LTG DSNT ALQDS RAB22 TSB23 TS OHD MOV E P0017 T01610144
KGCK 222324Z 36032G50KT 4SM -TSRA BR FEW034 BKN044 OVC070 17/14 A2984 RMK AO2 PK WND 36050/2321 WSHFT 2309 LTG DSNT ALQDS RAB22 TSB23 TS OHD MOV E P0007 T01670144
KGCK 222315Z 36032G44KT 10SM VCTS SQ FEW040 OVC070 19/13 A2984 RMK AO2 PK WND 01044/2311 LTG DSNT ALQDS TS VC SW-E MOV E T01940128
KGCK 222254Z 15003KT 10SM OVC065 27/16 A2983 RMK AO2 LTG DSNT N AND NW PRESRR SLP071 T02720161
KGCK 222154Z 15014G21KT 10SM FEW050 29/16 A2979 RMK AO2 SLP056 T02940161
KGCK 222054Z 18016G23KT 10SM CLR 28/15 A2984 RMK AO2 SLP071 T02830150 56034
KGCK 221954Z 14014G20KT 10SM CLR 28/13 A2986 RMK AO2 SLP079 T02780128